AirNav   ProFlight Series 2 Aviation Headset
 
 569 users online  

PS28 Penn DDA Inc. Heliport
Philadelphia, Pennsylvania, USA

GOING TO PHILADELPHIA?


FAA INFORMATION EFFECTIVE 18 JUNE 2020

Location

FAA Identifier: PS28
Lat/Long: 40-02-08.4010N 075-00-58.6140W
40-02.140017N 075-00.976900W
40.0356669,-75.0162817
(estimated)
Elevation: 25 ft. / 8 m (estimated)
Variation: 13W (1985)
Time zone: UTC -4 (UTC -5 during Standard Time)
Zip code: 19136

Heliport Operations

Heliport use: Private use. Permission required prior to landing
Activation date: 11/1983
Control tower: no
ARTCC: NEW YORK CENTER
FSS: WILLIAMSPORT FLIGHT SERVICE STATION
Attendance: UNATNDD
Segmented circle: no

Heliport Communications

WX ASOS at PNE (2.8 nm N): 121.15 (215-677-0146)
WX ASOS at VAY (10 nm SE): 119.325 (609-267-1176)
WX AWOS-3 at LOM (13 nm NW): 118.925 (215-646-1068)
WX ASOS at PHL (14 nm SW): PHONE 215-492-9617
WX ASOS at TTN (17 nm NE): 126.775 (609-538-8690)
WX ASOS at DYL (18 nm N): 118.875 (215-345-0392)

Nearby radio navigation aids

VOR radial/distance  VOR name  Freq  Var
ARDr211/14.0YARDLEY VOR/DME108.2010W
GXUr287/19.4MC GUIRE VORTAC110.6012W
RBVr257/25.9ROBBINSVILLE VORTAC113.8010W
PTWr123/27.4POTTSTOWN VORTAC116.5009W
OODr039/27.4WOODSTOWN VORTAC112.8010W
CYNr306/29.9COYLE VORTAC113.4010W
VCNr006/30.0CEDAR LAKE VOR/DME115.2010W
MXEr086/30.9MODENA VORTAC113.2009W
DQOr062/34.7DUPONT VORTAC114.0010W
SBJr211/35.2SOLBERG VOR/DME112.9010W

 
NDB name  Hdg/Dist  Freq  Var  ID
AMBLER126/13.527512WING .. -. --.
LAKEHURST280/31.339611WNEL -. . .-..
RAINBOW019/37.536311WRNB .-. -. -...

Heliport Services

Runway Information

Helipad H1

Dimensions: 32 x 32 ft. / 10 x 10 m
Surface: asphalt
Traffic pattern: leftleft

Heliport Ownership and Management from official FAA records

Ownership: Privately-owned
Owner: PENN DETROIT DIESEL ALLISON
8330 STATE ROAD
PHILADELPHIA, PA 19136
Phone 215-335-0500
Manager: G.L. TIFFAN
8330 STATE ROAD
PHILADELPHIA, PA 19136
Phone 215-335-0500

Additional Remarks

A52-H1 22' BLDG 90' SE.
FOR CD CTC PHILADELPHIA APCH AT 800-354-9884.

Instrument Procedures

There are no published instrument procedures at PS28.

Some nearby airports with instrument procedures:

KPNE - Northeast Philadelphia Airport (3 nm N)
KVAY - South Jersey Regional Airport (10 nm SE)
N14 - Flying W Airport (11 nm SE)
KLOM - Wings Field Airport (13 nm NW)
KPHL - Philadelphia International Airport (14 nm SW)
19N - Camden County Airport (16 nm S)
KTTN - Trenton Mercer Airport (17 nm NE)
KDYL - Doylestown Airport (18 nm N)
KWRI - McGuire Field (Joint Base Mc Guire Dix Lakehurst) Airport (20 nm E)
17N - Cross Keys Airport (20 nm S)
 
Loc | Ops | Rwys | IFR | FBO | Links
Com | Nav | Svcs | Stats | Notes
Area around PS28 (Penn DDA Inc. Heliport)
 
Road maps at: MapQuest Bing Google
 
Aerial photo
No photo
 
Sectional chart

 
Airport distance calculator
Flying to Penn DDA Inc. Heliport? Find the distance to fly.

From to PS28

Sunrise and sunset
Times for 11-Jul-2020
 Local
(UTC-4)
 Zulu
(UTC)
Morning civil twilight05:1009:10
Sunrise05:4209:42
Sunset20:2900:29
Evening civil twilight21:0101:01

Current date and time
Zulu (UTC)  11-Jul-2020 04:42:39
Local (UTC-4)  11-Jul-2020 00:42:39
 
METAR
KPNE 
3nm N 
110417Z AUTO 23015G22KT 10SM SCT014 BKN020 OVC030 23/22 A2971 RMK AO2 T02330222
KVAY 
10nm SE 
ASOS 119.325 609-267-1176
110419Z AUTO 21004KT 10SM FEW024 BKN031 23/22 A2972 RMK AO2 T02330222
KLOM 
13nm NW 
110415Z AUTO 23008KT 10SM BKN013 OVC019 23/22 A2971 RMK AO2 P0001 T02270219
KPHL 
14nm SW 
110354Z 23015KT 10SM BKN032 BKN110 24/21 A2971 RMK AO2 SLP062 T02440211
KTTN 
17nm NE 
ASOS 133.70 609-538-8690
110420Z AUTO 23009G17KT 10SM OVC012 22/22 A2968 RMK AO2 T02220217
KDYL 
18nm N 
110354Z AUTO 23009G14KT 10SM OVC007 23/21 A2967 RMK AO2 RAE03B28E43 CIG 004V013 SLP042 P0000 T02280211
KWRI 
20nm E 
110419Z 21012KT 10SM BKN018 23/22 A2971 RMK AO2A RAE06 SLP060
TAF
KPNE 
3nm N 
110215Z 1102/1124 23010KT P6SM OVC020 TEMPO 1102/1105 3SM -SHRA OVC007 FM110500 26006KT P6SM BKN025 FM110900 22006KT P6SM SCT080 FM111300 21008KT P6SM BKN080
KPHL 
14nm SW 
110400Z 1104/1206 23012KT P6SM FEW015 SCT030 TEMPO 1104/1106 BKN030 FM110900 21006KT P6SM SCT080 FM111300 21010KT P6SM BKN080 FM111800 23012G20KT P6SM SCT050 FM120000 22004KT P6SM FEW020
KTTN 
17nm NE 
110241Z 1103/1124 23006KT P6SM OVC025 TEMPO 1103/1105 3SM -SHRA BR BKN004 OVC012 FM110600 27006KT P6SM BKN025 FM110900 23006KT P6SM SCT080 FM111300 22006KT P6SM BKN080
KWRI 
20nm E 
110200Z 1102/1208 24012G20KT 9999 BKN007 OVC015 QNH2964INS TEMPO 1102/1105 23015G25KT 9000 -SHRA BR SCT007 OVC015 BECMG 1104/1105 22008KT 9999 BKN020 QNH2966INS BECMG 1111/1112 22010G18KT 9999 SCT045 BKN100 QNH2967INS BECMG 1116/1117 23012G20KT 9999 SCT050 SCT250 QNH2964INS TEMPO 1117/1121 22020G35KT 3200 TSRA BKN030CB BECMG 1123/1124 23009KT 9999 SCT050 QNH2964INS TX31/1118Z TN21/1110Z
NOTAMs
Click for the latest NOTAMs
NOTAMs are issued by the DoD/FAA and will open in a separate window not controlled by AirNav.

 

 
 

Would you like to see your business listed on this page?

 If your business provides an interesting product or service to pilots, flight crews, aircraft, or users of the Penn DDA Inc. Heliport, you should consider listing it here.  To start the listing process, click on the button below
 
Add a business
 

Other Pages about Penn DDA Inc. Heliport

Update a link
 
Copyright © AirNav, LLC. All rights reserved. Privacy Policy  Contact